Aérodrome :
LOGIN :

S'inscrire | Disclaimer

   EN    FR    IT 

 










Légende :    VFR   VFR Marginal   IFR   IFR Intensif   IFR Très Intensif
Visi : 
Plafond : 
>= 8 km
>= 3000ft
5 à 8 km
1000 à 3000 ft
1500m à 5 km
500 à 1000 ft
800 à 1500m
200 à 500 ft
< 800m
< 200 ft
Symboles :   Orages  Brouillard  Fortes neiges  Fortes précipitations  Vent > 20 kt
SIGMETs :   Divers  Orages  Givrage  Turbulence  Onde Orograph.  Cendres Volcan.







- Altitude de l'aérodrome : 102 ft
- Code IATA : CNG
- Voir les cartes d'approche


LFBG - Cognac

DERNIER METAR :
  • 101330Z AUTO 32004KT 9999 FEW032 12/06 Q1031 NOSIG

METARs EXPIRÉS :
  • 101300Z AUTO 32004KT 260V020 9999 BKN029 BKN037 12/06 Q1032 NOSIG
  • 101230Z AUTO 32004KT 290V350 9999 BKN025 12/06 Q1032 NOSIG
  • 101200Z AUTO 33005KT 300V010 9999 FEW019 BKN025 11/06 Q1032 NOSIG
  • 101130Z AUTO 31004KT 280V010 9999 SCT018 11/08 Q1032 NOSIG
  • 101100Z AUTO 27003KT 220V330 CAVOK 10/08 Q1033 NOSIG

TAF TAF LFBG
Valide du 10 à 09h jusqu'au 11 à 09h UTC


100800Z 1009/1109 VRB02KT 3000 BR SCT030
PROB30
TEMPO 1009/1010 0800 FG
BECMG 1010/1011 9999 NSW SCT040
BECMG 1021/1023 3000 BR
PROB30
TEMPO 1023/1109 0800 FG VV///
Pas de NOTAMs connus pour ce terrain.



MET'MAP, la Météo Aéronautique d'un coup d'oeil ! - Copyright ORBIFLY Décembre 2007 - Disclaimer

ORBIFLY MET'MAP TEAM :

Programmation & Développement : Alexandra Zaïnal
Conception & Développement : Baudouin d'Aumeries
Co-Programmation & Développement : Marc-Olivier Méhu
Soutien technique & logistique : Manuel Goepfert

Contact : metmap@orbifly.com




SOURCES & CREDITS :

   NOAA